Hamilton Island Airport

YBHM · Queensland, 澳大利亚

TAF YBHM · Hamilton Island Airport

16 七月 21:08 LT
4h
2024年7月16日 22:002024年7月17日 10:00有效
时间
星期二
22:00
星期二
23:00
星期三
00:00
星期三
01:00
星期三
02:00
星期三
03:00
星期三
04:00
星期三
05:00
星期三
06:00
星期三
07:00
星期三
08:00
星期三
09:00
代码
VFR
VFR
VFR
VFR
VFR
VFR
VFR
VFR
VFR
VFR
VFR
VFR
天气
天空晴朗
天空晴朗
天空晴朗
天空晴朗
天空晴朗
天空晴朗
天空晴朗
天空晴朗
天空晴朗
天空晴朗
天空晴朗
天空晴朗
能见度
10 km+
10 km+
10 km+
10 km+
10 km+
10 km+
10 km+
10 km+
10 km+
10 km+
10 km+
10 km+
天花板
-
-
-
-
-
-
-
-
-
-
-
-
230°
230°
230°
230°
230°
230°
230°
230°
230°
230°
230°
230°
230°
230°
230°
230°
230°
230°
230°
230°
230°
230°
230°
230°
速度
12 kt
12 kt
12 kt
12 kt
12 kt
12 kt
12 kt
12 kt
12 kt
12 kt
12 kt
12 kt
阵风
温度/星期日

原版的

TAF YBHM 161108Z 1612/1700 23012KT CAVOK

TAF Hamilton Island Airport

Hamilton Island Airport是,澳大利亚中的中型机场。 该机场位于纬度-20,35745和经度148,95201。 该机场有一条跑道: 14/32. 本场的ICAO机场代码为YBHM。 该机场的IATA代码为HTI。 机场在Brisbane FIR中。

该航空气象观测是针对Hamilton Island Airport在2024年7月16日 21:08, 当地时间进行的。 从2024年7月16日 22:00到2024年7月17日 10:00, 当地时间有效.

预报

  • 在星期二 22:00和星期三 10:00之间

    • 风: 风来自230°方向,速度为12 kt。
    • CAVOK: 天气为CAVOK。这意味着在5.000 ft或MSA(最低安全高度)以下(以较高者为准)以下没有云。这也意味着没有观测到积雨云或高耸的积云,可见度为10 km 或者更多或更高。此外,不会有雾,降雨或其他重要天气。

白天

今天,太阳从06:39升起,在17:40降落。 这适用于Hamilton Island Airport,世界夏令时可能有所不同。 当地时间与世界标准时间之间的时差为+10 小时。 夏令时目前正在进行中。

报告变更